Kindersley Airport
CYKY : now visible

Airfield :











YOU CAN JOIN US ON...

 
LOGIN :

Register | Disclaimer

   EN    FR    IT 

 









Legend :    VFR   Marginal VFR   IFR   Intensive IFR   Very Intensive IFR
Visi :
Ceiling :
>= 8 km
>= 3000ft
5 to 8 km
1000 to 3000 ft
1500m to 5 km
500 to 1000 ft
800 to 1500m
200 to 500 ft
< 800m
< 200 ft
Symbols :   Thunderstorms  Fog  Heavy snow  Heavy precipitations  Wind > 20 kt







- Airport Elevation : 2277 ft
- IATA code : YKY


CYKY - Kindersley

CURRENT METAR :
  • 210000Z 18020G29KT 15SM FEW065 FEW085 17/M05 A2998 RMK CU1AC1 CU TR SLP167 DENSITY ALT 3000FT

EXPIRED METARs :
  • 202300Z 16019G28KT 15SM FEW065 FEW085 18/M05 A2999 RMK CU1AC1 SLP169 DENSITY ALT 3100FT
  • 202200Z 16023G29KT 150V220 15SM SCT065 20/M06 A3000 RMK CU3 SLP172 DENSITY ALT 3300FT

TAF N/A
CZWG FIR / North America



MET'MAP, your aeronautical weather chart ! - Copyright ORBIFLY December 2007 - Disclaimer

ORBIFLY MET'MAP TEAM :

Programming & Development : Alexandra Zaïnal
Concept & Development : Baudouin d'Aumeries
Co-Development & Prog : Marc-Olivier Méhu
Technical & hardware support : Manuel Goepfert

Contact : metmap@orbifly.com




SOURCES & CREDITS :

   NOAA       Earth
Advisory